Time;durP1;ratioP1;P1;durP2;ratioP2;P2;SDS_P1;SDS_P2;PMS_P1;PMS_P2;Temp;Humidity;BMP_temperature;BMP_pressure;BME280_temperature;BME280_humidity;BME280_pressure;Samples;Min_cycle;Max_cycle;Signal;HPM_P1;HPM_P2
2021/01/28 00:00:51;;;;;;;26.38;22.30;;;;;;;;;;5134515;27;20075;-44
2021/01/28 00:03:22;;;;;;;30.02;24.35;;;;;;;;;;5135285;27;20064;-44
2021/01/28 00:05:48;;;;;;;33.47;25.02;;;;;;;;;;5134979;27;20034;-45
2021/01/28 00:08:16;;;;;;;43.25;29.60;;;;;;;;;;5134440;27;20023;-43
2021/01/28 00:10:44;;;;;;;37.17;26.63;;;;;;;;;;5133219;27;20407;-44
2021/01/28 00:13:15;;;;;;;31.00;28.13;;;;;;;;;;5134898;27;20076;-43
2021/01/28 00:15:40;;;;;;;24.80;22.25;;;;;;;;;;5134947;27;20023;-42
2021/01/28 00:18:07;;;;;;;19.77;17.70;;;;;;;;;;5134997;27;20027;-43
2021/01/28 00:20:37;;;;;;;20.80;18.52;;;;;;;;;;5134663;27;20020;-44
2021/01/28 00:23:03;;;;;;;29.17;20.67;;;;;;;;;;5135223;27;20027;-47
2021/01/28 00:25:31;;;;;;;20.27;16.15;;;;;;;;;;5134152;27;20530;-47
2021/01/28 00:27:59;;;;;;;20.00;17.23;;;;;;;;;;5134370;27;20031;-47
2021/01/28 00:30:35;;;;;;;21.63;17.50;;;;;;;;;;5134277;27;20031;-44
2021/01/28 00:33:01;;;;;;;18.98;17.10;;;;;;;;;;5134849;27;20305;-45
2021/01/28 00:35:45;;;;;;;17.95;10.82;;;;;;;;;;5134133;27;20027;-44
2021/01/28 00:38:18;;;;;;;12.50;11.23;;;;;;;;;;5134505;27;20050;-43
2021/01/28 00:40:44;;;;;;;13.02;11.63;;;;;;;;;;5133979;27;20451;-43
2021/01/28 00:43:12;;;;;;;20.10;14.70;;;;;;;;;;5133781;27;20035;-44
2021/01/28 00:45:37;;;;;;;23.63;18.63;;;;;;;;;;5133829;27;20124;-44
2021/01/28 00:48:03;;;;;;;22.13;15.60;;;;;;;;;;5134483;27;20090;-43
2021/01/28 00:50:29;;;;;;;23.95;19.15;;;;;;;;;;5134339;27;20049;-42
2021/01/28 00:53:00;;;;;;;28.85;20.02;;;;;;;;;;5134522;27;20048;-46
2021/01/28 00:55:26;;;;;;;23.30;18.23;;;;;;;;;;5133924;27;20110;-43
2021/01/28 00:57:51;;;;;;;18.60;14.85;;;;;;;;;;5134279;27;20059;-43
2021/01/28 01:00:20;;;;;;;11.25;9.70;;;;;;;;;;5133998;27;20389;-47
2021/01/28 01:02:49;;;;;;;21.73;16.10;;;;;;;;;;5134014;27;20094;-44
2021/01/28 01:05:18;;;;;;;17.00;12.70;;;;;;;;;;5133977;27;20015;-42
2021/01/28 01:07:45;;;;;;;17.08;13.45;;;;;;;;;;5134154;27;20110;-43
2021/01/28 01:10:41;;;;;;;;;;;;;;;;;;;;;
2021/01/28 01:13:08;;;;;;;18.50;10.38;;;;;;;;;;5134655;28;20023;-43
2021/01/28 01:15:33;;;;;;;19.35;12.07;;;;;;;;;;5133963;27;20512;-43
2021/01/28 01:18:04;;;;;;;16.77;9.93;;;;;;;;;;5134182;27;20015;-42
2021/01/28 01:20:36;;;;;;;16.20;11.15;;;;;;;;;;5136151;27;20019;-44
2021/01/28 01:23:02;;;;;;;19.38;11.27;;;;;;;;;;5138461;27;20023;-45
2021/01/28 01:25:30;;;;;;;9.98;6.95;;;;;;;;;;5137874;27;20015;-43
2021/01/28 01:27:56;;;;;;;10.75;7.32;;;;;;;;;;5138298;27;20102;-43
2021/01/28 01:30:22;;;;;;;10.20;5.68;;;;;;;;;;5137748;27;20469;-42
2021/01/28 01:36:02;;;;;;;12.13;9.30;;;;;;;;;;5137402;27;20393;-46
2021/01/28 01:38:30;;;;;;;7.35;5.07;;;;;;;;;;5138265;27;20019;-43
2021/01/28 01:40:58;;;;;;;5.55;4.50;;;;;;;;;;5137264;27;20463;-45
2021/01/28 01:43:26;;;;;;;17.33;11.63;;;;;;;;;;5137534;27;20518;-44
2021/01/28 01:46:01;;;;;;;15.25;13.35;;;;;;;;;;5137177;27;20081;-44
2021/01/28 01:49:05;;;;;;;16.50;13.05;;;;;;;;;;5138160;27;20011;-45
2021/01/28 01:51:34;;;;;;;23.38;16.98;;;;;;;;;;5054009;28;20457;-45
2021/01/28 01:54:23;;;;;;;17.00;15.00;;;;;;;;;;5053737;28;20025;-45
2021/01/28 01:56:49;;;;;;;18.88;13.63;;;;;;;;;;5100209;27;20066;-43
2021/01/28 01:59:18;;;;;;;22.73;16.15;;;;;;;;;;5136931;27;20015;-46
2021/01/28 02:01:45;;;;;;;16.00;13.85;;;;;;;;;;5137355;27;20026;-45
2021/01/28 02:04:14;;;;;;;14.27;12.77;;;;;;;;;;5137079;27;20058;-42
2021/01/28 02:06:41;;;;;;;15.77;14.15;;;;;;;;;;5137563;27;20482;-42
2021/01/28 02:09:09;;;;;;;11.45;10.05;;;;;;;;;;5136718;27;20098;-46
2021/01/28 02:11:40;;;;;;;14.57;12.98;;;;;;;;;;5137356;27;20446;-42
2021/01/28 02:14:07;;;;;;;18.17;14.10;;;;;;;;;;5137262;27;20031;-42
2021/01/28 02:16:40;;;;;;;15.88;14.27;;;;;;;;;;5136515;27;20374;-45
2021/01/28 02:19:27;;;;;;;18.58;15.45;;;;;;;;;;5136809;27;20031;-43
2021/01/28 02:21:58;;;;;;;20.98;17.10;;;;;;;;;;5136684;27;20072;-43
2021/01/28 02:24:26;;;;;;;14.77;13.27;;;;;;;;;;5136718;27;20448;-43
2021/01/28 02:26:52;;;;;;;15.85;12.70;;;;;;;;;;5137103;27;20023;-44
2021/01/28 02:29:19;;;;;;;12.70;11.40;;;;;;;;;;5136634;27;20347;-44
2021/01/28 02:31:45;;;;;;;14.18;12.30;;;;;;;;;;5135931;27;20072;-42
2021/01/28 02:34:10;;;;;;;14.60;13.15;;;;;;;;;;5136116;27;20485;-43
2021/01/28 02:36:40;;;;;;;16.88;15.05;;;;;;;;;;5136767;27;20031;-42
2021/01/28 02:39:06;;;;;;;9.40;8.25;;;;;;;;;;5136456;27;20011;-44
2021/01/28 02:41:35;;;;;;;18.45;12.18;;;;;;;;;;5136262;27;20011;-44
2021/01/28 02:44:01;;;;;;;21.10;12.50;;;;;;;;;;5134382;27;20467;-44
2021/01/28 02:46:26;;;;;;;11.48;8.65;;;;;;;;;;5136181;27;20037;-43
2021/01/28 02:48:52;;;;;;;5.65;4.82;;;;;;;;;;5136761;27;20019;-43
2021/01/28 02:51:17;;;;;;;9.20;7.53;;;;;;;;;;5136510;27;20393;-43
2021/01/28 02:53:44;;;;;;;9.38;6.60;;;;;;;;;;5136310;27;20041;-42
2021/01/28 02:56:10;;;;;;;9.60;6.97;;;;;;;;;;5136161;27;20023;-43
2021/01/28 02:58:35;;;;;;;6.28;4.82;;;;;;;;;;5136484;27;20018;-43
2021/01/28 03:01:01;;;;;;;5.70;5.03;;;;;;;;;;5136535;27;20024;-44
2021/01/28 03:03:26;;;;;;;6.25;5.50;;;;;;;;;;5136003;27;20023;-45
2021/01/28 03:05:51;;;;;;;16.20;8.65;;;;;;;;;;5135813;27;20027;-44
2021/01/28 03:08:17;;;;;;;9.30;8.43;;;;;;;;;;5136489;27;20011;-45
2021/01/28 03:10:43;;;;;;;9.75;8.70;;;;;;;;;;5135848;27;20027;-43
2021/01/28 03:13:09;;;;;;;9.40;7.65;;;;;;;;;;5136027;27;20026;-42
2021/01/28 03:15:35;;;;;;;8.13;6.70;;;;;;;;;;5135880;27;20355;-43
2021/01/28 03:18:00;;;;;;;10.20;7.45;;;;;;;;;;5135458;27;20016;-42
2021/01/28 03:20:25;;;;;;;9.52;7.90;;;;;;;;;;5135543;27;20031;-43
2021/01/28 03:22:50;;;;;;;9.00;7.47;;;;;;;;;;5135757;27;20008;-46
2021/01/28 03:25:17;;;;;;;6.38;5.10;;;;;;;;;;5135173;27;20030;-47
2021/01/28 03:27:42;;;;;;;7.82;6.47;;;;;;;;;;5135548;27;20015;-43
2021/01/28 03:30:12;;;;;;;5.63;4.78;;;;;;;;;;5135169;27;20029;-43
2021/01/28 03:32:37;;;;;;;7.15;5.63;;;;;;;;;;5135601;27;20022;-42
2021/01/28 03:35:03;;;;;;;5.38;3.97;;;;;;;;;;5135020;27;20101;-44
2021/01/28 03:37:28;;;;;;;7.10;4.68;;;;;;;;;;5135424;27;20064;-47
2021/01/28 03:39:53;;;;;;;5.18;3.97;;;;;;;;;;5135238;27;20375;-44
2021/01/28 03:42:19;;;;;;;9.80;3.92;;;;;;;;;;5135429;27;20114;-43
2021/01/28 03:44:44;;;;;;;8.27;4.07;;;;;;;;;;5134213;27;20051;-44
2021/01/28 03:47:09;;;;;;;7.15;3.60;;;;;;;;;;5135160;27;20027;-42
2021/01/28 03:49:34;;;;;;;3.63;2.22;;;;;;;;;;5135323;27;20105;-43
2021/01/28 03:52:00;;;;;;;3.50;2.30;;;;;;;;;;5134827;27;20019;-46
2021/01/28 03:54:25;;;;;;;3.35;3.03;;;;;;;;;;5133430;27;20083;-42
2021/01/28 03:56:50;;;;;;;3.42;2.05;;;;;;;;;;5135188;27;20445;-46
2021/01/28 03:59:16;;;;;;;5.65;3.53;;;;;;;;;;5134891;27;20019;-44
2021/01/28 04:01:41;;;;;;;7.47;3.85;;;;;;;;;;5135061;27;20031;-46
2021/01/28 04:04:06;;;;;;;12.05;5.10;;;;;;;;;;5134954;27;20443;-42
2021/01/28 04:06:31;;;;;;;5.97;4.63;;;;;;;;;;5134405;27;20068;-43
2021/01/28 04:08:57;;;;;;;6.93;4.53;;;;;;;;;;5135200;27;20419;-42
2021/01/28 04:11:22;;;;;;;4.88;3.75;;;;;;;;;;5135258;27;20011;-43
2021/01/28 04:13:47;;;;;;;6.93;3.88;;;;;;;;;;5134579;27;20023;-48
2021/01/28 04:16:12;;;;;;;7.72;3.90;;;;;;;;;;5135104;27;20012;-47
2021/01/28 04:18:38;;;;;;;4.20;2.42;;;;;;;;;;5135218;27;20068;-43
2021/01/28 04:21:03;;;;;;;2.78;1.27;;;;;;;;;;5134225;27;20030;-43
2021/01/28 04:23:28;;;;;;;4.97;2.50;;;;;;;;;;5135294;27;20035;-44
2021/01/28 04:25:54;;;;;;;5.38;4.57;;;;;;;;;;5134428;27;20027;-45
2021/01/28 04:28:19;;;;;;;8.25;6.15;;;;;;;;;;5134498;27;20057;-44
2021/01/28 04:30:44;;;;;;;5.22;4.70;;;;;;;;;;5134564;27;20439;-43
2021/01/28 04:33:10;;;;;;;6.40;3.95;;;;;;;;;;5134864;27;20023;-43
2021/01/28 04:38:38;;;;;;;15.32;6.80;;;;;;;;;;5134968;27;20039;-43
2021/01/28 04:41:09;;;;;;;10.32;3.40;;;;;;;;;;5132890;27;20031;-43
2021/01/28 04:43:35;;;;;;;4.10;3.13;;;;;;;;;;5134262;27;20084;-43
2021/01/28 04:46:03;;;;;;;7.15;4.75;;;;;;;;;;5134436;27;20023;-42
2021/01/28 04:48:30;;;;;;;6.65;5.13;;;;;;;;;;5134400;27;20019;-46
2021/01/28 04:50:56;;;;;;;7.22;4.45;;;;;;;;;;5134146;27;20019;-44
2021/01/28 04:53:34;;;;;;;8.77;3.90;;;;;;;;;;5134689;27;20083;-44
2021/01/28 04:56:04;;;;;;;4.97;3.35;;;;;;;;;;5134104;27;20026;-42
2021/01/28 04:58:29;;;;;;;8.45;4.50;;;;;;;;;;5134264;27;20435;-47
2021/01/28 05:00:55;;;;;;;10.10;3.40;;;;;;;;;;5134232;27;20024;-44
2021/01/28 05:03:25;;;;;;;4.68;3.65;;;;;;;;;;5134219;28;20031;-43
2021/01/28 05:05:53;;;;;;;6.05;5.45;;;;;;;;;;5134264;27;20015;-43
2021/01/28 05:08:19;;;;;;;4.95;3.63;;;;;;;;;;5134290;27;20020;-43
2021/01/28 05:10:48;;;;;;;5.78;4.45;;;;;;;;;;5133963;27;20351;-42
2021/01/28 05:13:27;;;;;;;8.15;4.25;;;;;;;;;;5134422;27;20027;-43
2021/01/28 05:15:53;;;;;;;5.80;4.68;;;;;;;;;;5134312;27;20035;-42
2021/01/28 05:18:29;;;;;;;6.72;4.70;;;;;;;;;;5134482;27;20323;-45
2021/01/28 05:21:16;;;;;;;5.60;4.90;;;;;;;;;;5133867;27;20312;-42
2021/01/28 05:23:42;;;;;;;7.00;5.28;;;;;;;;;;5134152;27;20023;-47
2021/01/28 05:26:25;;;;;;;8.27;7.25;;;;;;;;;;5133466;28;20068;-46
2021/01/28 05:28:51;;;;;;;8.02;5.93;;;;;;;;;;5133667;28;20065;-43
2021/01/28 05:31:18;;;;;;;9.32;6.35;;;;;;;;;;5133727;28;20395;-45
2021/01/28 05:33:43;;;;;;;8.65;6.05;;;;;;;;;;5132721;27;20435;-43
2021/01/28 05:36:17;;;;;;;5.50;4.95;;;;;;;;;;5133488;27;20052;-44
2021/01/28 05:38:47;;;;;;;5.97;4.03;;;;;;;;;;5133814;27;20029;-44
2021/01/28 05:41:25;;;;;;;9.98;6.57;;;;;;;;;;5133863;27;20116;-43
2021/01/28 05:43:50;;;;;;;9.05;6.13;;;;;;;;;;5133681;27;20062;-43
2021/01/28 05:46:18;;;;;;;8.05;6.45;;;;;;;;;;5133404;28;20015;-46
2021/01/28 05:48:45;;;;;;;10.88;7.68;;;;;;;;;;5134210;27;20023;-47
2021/01/28 05:51:16;;;;;;;16.83;5.97;;;;;;;;;;5133274;27;20490;-44
2021/01/28 05:53:55;;;;;;;8.17;6.33;;;;;;;;;;5133072;27;20458;-44
2021/01/28 05:56:21;;;;;;;12.65;7.40;;;;;;;;;;5133748;27;20019;-47
2021/01/28 05:58:52;;;;;;;6.97;6.18;;;;;;;;;;5133628;27;20068;-46
2021/01/28 06:01:42;;;;;;;8.75;6.13;;;;;;;;;;5132044;28;20045;-47
2021/01/28 06:04:07;;;;;;;5.43;4.85;;;;;;;;;;5133597;27;20035;-44
2021/01/28 06:07:08;;;;;;;7.57;5.43;;;;;;;;;;5133207;27;20083;-44
2021/01/28 06:09:55;;;;;;;8.67;6.93;;;;;;;;;;5053788;28;20032;-43
2021/01/28 06:12:21;;;;;;;9.05;7.15;;;;;;;;;;5132594;27;20270;-49
2021/01/28 06:15:01;;;;;;;8.45;5.22;;;;;;;;;;5136895;27;20363;-48
2021/01/28 06:17:52;;;;;;;9.80;5.60;;;;;;;;;;5136800;27;20026;-42
2021/01/28 06:20:25;;;;;;;6.55;5.60;;;;;;;;;;5137084;27;20234;-43
2021/01/28 06:23:02;;;;;;;11.38;9.15;;;;;;;;;;5136817;27;20023;-45
2021/01/28 06:25:33;;;;;;;9.00;6.95;;;;;;;;;;5136678;27;20027;-43
2021/01/28 06:28:10;;;;;;;8.27;7.03;;;;;;;;;;5136887;27;20043;-45
2021/01/28 06:30:58;;;;;;;7.30;6.53;;;;;;;;;;5137002;27;20019;-48
2021/01/28 06:33:32;;;;;;;7.30;5.85;;;;;;;;;;5097424;27;20039;-45
2021/01/28 06:36:00;;;;;;;34.50;28.92;;;;;;;;;;5136633;27;20019;-44
2021/01/28 06:38:39;;;;;;;12.80;11.45;;;;;;;;;;5136944;27;20093;-44
2021/01/28 06:41:08;;;;;;;13.95;12.48;;;;;;;;;;5136941;27;20072;-48
2021/01/28 06:43:43;;;;;;;13.20;10.95;;;;;;;;;;5136430;27;20070;-46
2021/01/28 06:46:30;;;;;;;8.65;5.53;;;;;;;;;;5136339;27;20019;-49
2021/01/28 06:49:02;;;;;;;7.82;5.82;;;;;;;;;;5136428;27;20045;-48
2021/01/28 06:51:36;;;;;;;7.18;5.50;;;;;;;;;;5136066;27;20452;-48
2021/01/28 06:54:04;;;;;;;42.20;12.38;;;;;;;;;;5135877;27;20027;-45
2021/01/28 06:56:29;;;;;;;30.55;10.57;;;;;;;;;;5136111;27;20011;-42
2021/01/28 06:59:02;;;;;;;17.13;8.70;;;;;;;;;;5135435;27;20038;-43
2021/01/28 07:01:36;;;;;;;13.18;7.68;;;;;;;;;;5135724;27;20031;-42
2021/01/28 07:04:12;;;;;;;26.42;16.30;;;;;;;;;;5135966;27;20058;-49
2021/01/28 07:06:43;;;;;;;18.33;11.13;;;;;;;;;;5135891;27;20011;-45
2021/01/28 07:09:41;;;;;;;32.35;11.68;;;;;;;;;;5135877;27;20055;-46
2021/01/28 07:12:08;;;;;;;23.48;14.60;;;;;;;;;;5120153;27;20030;-45
2021/01/28 07:14:33;;;;;;;22.50;10.90;;;;;;;;;;5135535;27;20125;-45
2021/01/28 07:17:12;;;;;;;10.32;7.90;;;;;;;;;;5135884;27;20504;-46
2021/01/28 07:19:38;;;;;;;13.20;8.50;;;;;;;;;;5135642;27;20019;-45
2021/01/28 07:22:22;;;;;;;24.25;12.82;;;;;;;;;;5135700;27;20462;-46
2021/01/28 07:24:47;;;;;;;11.45;6.60;;;;;;;;;;5135774;27;20062;-48
2021/01/28 07:27:13;;;;;;;24.30;11.05;;;;;;;;;;5136134;27;20023;-45
2021/01/28 07:29:44;;;;;;;13.68;9.93;;;;;;;;;;5135765;27;20102;-45
2021/01/28 07:32:10;;;;;;;23.05;10.40;;;;;;;;;;5135316;27;20022;-49
2021/01/28 07:34:36;;;;;;;7.70;6.95;;;;;;;;;;5135267;27;20019;-49
2021/01/28 07:37:20;;;;;;;15.57;7.18;;;;;;;;;;5135584;27;20446;-56
2021/01/28 07:39:45;;;;;;;16.20;7.82;;;;;;;;;;5135428;27;20019;-55
2021/01/28 07:42:31;;;;;;;13.77;10.23;;;;;;;;;;5135024;27;20023;-54
2021/01/28 07:44:57;;;;;;;17.23;13.57;;;;;;;;;;5134844;27;20055;-54
2021/01/28 07:47:46;;;;;;;14.00;11.25;;;;;;;;;;5135358;27;20030;-55
2021/01/28 07:50:14;;;;;;;15.85;12.10;;;;;;;;;;5135059;27;20058;-54
2021/01/28 07:52:40;;;;;;;15.02;13.30;;;;;;;;;;5135080;27;20015;-54
2021/01/28 07:55:25;;;;;;;15.88;13.88;;;;;;;;;;5135172;27;20027;-53
2021/01/28 08:01:05;;;;;;;16.52;14.90;;;;;;;;;;5134824;27;20024;-53
2021/01/28 08:03:32;;;;;;;16.65;14.73;;;;;;;;;;5134992;27;20035;-55
2021/01/28 08:06:01;;;;;;;14.02;10.93;;;;;;;;;;5134635;27;20031;-55
2021/01/28 08:08:26;;;;;;;13.25;9.98;;;;;;;;;;5135203;27;20102;-51
2021/01/28 08:10:51;;;;;;;10.25;8.45;;;;;;;;;;5134907;27;20066;-55
2021/01/28 08:13:17;;;;;;;13.13;8.80;;;;;;;;;;5133005;27;20141;-56
2021/01/28 08:15:44;;;;;;;13.40;10.45;;;;;;;;;;5134488;27;20152;-54
2021/01/28 08:18:12;;;;;;;19.35;16.08;;;;;;;;;;5134611;27;20007;-53
2021/01/28 08:20:37;;;;;;;11.57;9.90;;;;;;;;;;5134667;27;20031;-55
2021/01/28 08:23:05;;;;;;;13.13;9.65;;;;;;;;;;5134618;27;20018;-56
2021/01/28 08:25:36;;;;;;;16.95;13.23;;;;;;;;;;5134294;27;20019;-56
2021/01/28 08:28:12;;;;;;;24.17;16.55;;;;;;;;;;5133930;27;20047;-49
2021/01/28 08:30:38;;;;;;;24.48;19.77;;;;;;;;;;5134141;27;20030;-45
2021/01/28 08:33:04;;;;;;;16.17;14.38;;;;;;;;;;5134637;27;20011;-45
2021/01/28 08:35:35;;;;;;;19.08;16.00;;;;;;;;;;5134261;27;20399;-48
2021/01/28 08:38:12;;;;;;;18.58;16.65;;;;;;;;;;5134542;27;20018;-48
2021/01/28 08:40:38;;;;;;;20.55;18.45;;;;;;;;;;5133915;27;20031;-45
2021/01/28 08:43:21;;;;;;;24.38;18.35;;;;;;;;;;5133948;27;20043;-45
2021/01/28 08:45:47;;;;;;;17.08;15.05;;;;;;;;;;5134456;27;20076;-51
2021/01/28 08:48:15;;;;;;;16.13;12.40;;;;;;;;;;5134459;27;20023;-45
2021/01/28 08:50:41;;;;;;;13.90;12.32;;;;;;;;;;5133987;27;20336;-46
2021/01/28 08:53:14;;;;;;;21.80;18.75;;;;;;;;;;5134137;27;20406;-47
2021/01/28 08:55:40;;;;;;;31.95;23.67;;;;;;;;;;5134071;27;20358;-48
2021/01/28 08:58:06;;;;;;;21.38;19.10;;;;;;;;;;5134321;27;20511;-50
2021/01/28 09:00:31;;;;;;;20.30;14.20;;;;;;;;;;5133986;28;20091;-54
2021/01/28 09:02:57;;;;;;;43.55;37.75;;;;;;;;;;5133453;27;20019;-50
2021/01/28 09:05:22;;;;;;;115.13;101.68;;;;;;;;;;5134171;27;20029;-48
2021/01/28 09:07:55;;;;;;;121.20;89.85;;;;;;;;;;5134015;27;20035;-53
2021/01/28 09:10:30;;;;;;;40.55;36.22;;;;;;;;;;5114341;27;20047;-53
2021/01/28 09:13:15;;;;;;;73.35;56.63;;;;;;;;;;5104852;28;20074;-53
2021/01/28 09:21:47;;;;;;;21.73;19.08;;;;;;;;;;5113348;28;20035;-55
2021/01/28 09:24:27;;;;;;;34.58;18.35;;;;;;;;;;5112115;28;20047;-51
2021/01/28 09:27:06;;;;;;;26.05;15.35;;;;;;;;;;5111744;28;20016;-51
2021/01/28 09:29:34;;;;;;;16.70;14.88;;;;;;;;;;5112310;28;20458;-55
2021/01/28 09:32:08;;;;;;;15.30;12.18;;;;;;;;;;5113278;28;20103;-55
2021/01/28 09:34:33;;;;;;;11.43;10.23;;;;;;;;;;5130705;28;20443;-54
2021/01/28 09:36:58;;;;;;;9.93;8.40;;;;;;;;;;5133689;28;20019;-53
2021/01/28 09:39:31;;;;;;;17.48;8.40;;;;;;;;;;5133612;28;20067;-51
2021/01/28 09:42:09;;;;;;;13.35;9.70;;;;;;;;;;5134660;27;20295;-54
2021/01/28 09:44:36;;;;;;;14.13;11.88;;;;;;;;;;5137643;27;20038;-53
2021/01/28 09:47:09;;;;;;;15.85;8.52;;;;;;;;;;5118711;27;20023;-54
2021/01/28 09:49:35;;;;;;;9.68;7.43;;;;;;;;;;5115618;28;20024;-53
2021/01/28 09:52:00;;;;;;;8.52;6.65;;;;;;;;;;5116880;28;20153;-49
2021/01/28 09:54:25;;;;;;;57.05;26.55;;;;;;;;;;5117089;28;20348;-56
2021/01/28 09:56:50;;;;;;;10.43;7.78;;;;;;;;;;5116712;28;20027;-52
2021/01/28 09:59:16;;;;;;;10.68;9.73;;;;;;;;;;5116622;28;20360;-56
2021/01/28 10:01:42;;;;;;;12.93;6.65;;;;;;;;;;5116640;28;20036;-55
2021/01/28 10:04:08;;;;;;;12.80;9.05;;;;;;;;;;5116275;28;20030;-56
2021/01/28 10:06:33;;;;;;;9.65;8.50;;;;;;;;;;5116259;28;20114;-55
2021/01/28 10:08:59;;;;;;;6.50;5.22;;;;;;;;;;5116517;28;20031;-53
2021/01/28 10:11:25;;;;;;;19.77;6.15;;;;;;;;;;5116325;28;20452;-55
2021/01/28 10:13:50;;;;;;;6.95;5.38;;;;;;;;;;5124425;27;20056;-54
2021/01/28 10:16:15;;;;;;;12.32;7.55;;;;;;;;;;5137145;27;20023;-56
2021/01/28 10:18:41;;;;;;;13.55;10.00;;;;;;;;;;5137605;27;20108;-55
2021/01/28 10:21:06;;;;;;;9.15;8.23;;;;;;;;;;5136602;27;20030;-53
2021/01/28 10:23:31;;;;;;;48.05;19.98;;;;;;;;;;5137555;27;20030;-56
2021/01/28 10:25:57;;;;;;;14.50;9.95;;;;;;;;;;5136717;27;20131;-54
2021/01/28 10:28:22;;;;;;;16.33;14.18;;;;;;;;;;5136743;27;20418;-53
2021/01/28 10:30:47;;;;;;;34.45;14.27;;;;;;;;;;5136683;27;20071;-56
2021/01/28 10:33:13;;;;;;;20.27;17.23;;;;;;;;;;5126041;27;20015;-55
2021/01/28 10:35:38;;;;;;;16.13;13.75;;;;;;;;;;5116130;28;20027;-51
2021/01/28 10:38:04;;;;;;;12.18;10.88;;;;;;;;;;5116214;28;20020;-55
2021/01/28 10:40:30;;;;;;;11.88;10.25;;;;;;;;;;5115491;28;20417;-56
2021/01/28 10:42:58;;;;;;;13.15;11.70;;;;;;;;;;5115536;28;20053;-54
2021/01/28 10:45:25;;;;;;;16.90;14.73;;;;;;;;;;5115789;28;20030;-55
2021/01/28 10:47:51;;;;;;;17.23;12.45;;;;;;;;;;5116242;28;20084;-56
2021/01/28 10:50:17;;;;;;;31.73;28.35;;;;;;;;;;5115629;28;20023;-57
2021/01/28 10:52:42;;;;;;;32.22;28.92;;;;;;;;;;5115275;28;20459;-53
2021/01/28 10:55:08;;;;;;;29.95;25.17;;;;;;;;;;5115597;28;20034;-56
2021/01/28 10:57:34;;;;;;;30.23;26.67;;;;;;;;;;5115770;28;20567;-56
2021/01/28 10:59:59;;;;;;;47.30;34.55;;;;;;;;;;5130374;27;20023;-55
2021/01/28 11:02:24;;;;;;;37.72;33.83;;;;;;;;;;5136346;27;20015;-56
2021/01/28 11:04:50;;;;;;;33.70;30.23;;;;;;;;;;5135953;27;20328;-55
2021/01/28 11:07:15;;;;;;;37.55;27.85;;;;;;;;;;5136061;27;20019;-56
2021/01/28 11:09:40;;;;;;;25.00;20.30;;;;;;;;;;5135770;27;20050;-56
2021/01/28 11:12:07;;;;;;;23.55;18.90;;;;;;;;;;5135931;27;20019;-57
2021/01/28 11:14:32;;;;;;;21.02;14.20;;;;;;;;;;5135668;27;20069;-57
2021/01/28 11:16:57;;;;;;;17.08;9.77;;;;;;;;;;5136118;27;20031;-55
2021/01/28 11:19:23;;;;;;;4.03;3.53;;;;;;;;;;5135642;27;20075;-56
2021/01/28 11:21:48;;;;;;;5.20;4.15;;;;;;;;;;5135570;27;20015;-57
2021/01/28 11:24:13;;;;;;;16.80;5.53;;;;;;;;;;5135206;27;20027;-55
2021/01/28 11:26:39;;;;;;;4.55;3.90;;;;;;;;;;5135408;27;20030;-55
2021/01/28 11:29:06;;;;;;;11.93;5.78;;;;;;;;;;5136153;27;20451;-57
2021/01/28 11:31:31;;;;;;;6.25;4.00;;;;;;;;;;5134051;27;20019;-56
2021/01/28 11:33:57;;;;;;;9.23;5.35;;;;;;;;;;5135342;27;20473;-57
2021/01/28 11:36:22;;;;;;;13.45;7.50;;;;;;;;;;5135207;27;20071;-58
2021/01/28 11:38:47;;;;;;;9.18;6.68;;;;;;;;;;5134894;27;20031;-56
2021/01/28 11:41:13;;;;;;;8.75;7.95;;;;;;;;;;5134839;27;20026;-57
2021/01/28 11:43:38;;;;;;;7.97;5.75;;;;;;;;;;5135156;27;20039;-57
2021/01/28 11:46:03;;;;;;;30.73;17.00;;;;;;;;;;5134987;27;20019;-55
2021/01/28 11:48:28;;;;;;;9.98;6.68;;;;;;;;;;5132201;27;20015;-55
2021/01/28 11:50:54;;;;;;;15.65;9.05;;;;;;;;;;5114451;28;20073;-57
2021/01/28 11:53:19;;;;;;;14.75;10.85;;;;;;;;;;5114546;28;20436;-55
2021/01/28 11:55:44;;;;;;;13.18;8.63;;;;;;;;;;5114204;28;20020;-55
2021/01/28 11:58:11;;;;;;;11.48;8.70;;;;;;;;;;5114922;28;20031;-55
2021/01/28 12:00:36;;;;;;;15.57;11.98;;;;;;;;;;5114267;28;20020;-57
2021/01/28 12:03:04;;;;;;;10.30;7.30;;;;;;;;;;5114482;28;20026;-57
2021/01/28 12:05:29;;;;;;;6.13;4.97;;;;;;;;;;5113098;28;20020;-56
2021/01/28 12:07:55;;;;;;;10.73;4.55;;;;;;;;;;5114388;28;20572;-57
2021/01/28 12:10:21;;;;;;;12.32;7.47;;;;;;;;;;5113949;28;20138;-58
2021/01/28 12:12:46;;;;;;;8.77;5.72;;;;;;;;;;5113947;28;20019;-58
2021/01/28 12:15:12;;;;;;;6.95;5.53;;;;;;;;;;5113995;28;20030;-58
2021/01/28 12:17:38;;;;;;;5.70;4.22;;;;;;;;;;5114084;28;20020;-58
2021/01/28 12:20:04;;;;;;;8.77;5.45;;;;;;;;;;5113899;28;20020;-58
2021/01/28 12:22:29;;;;;;;6.22;5.25;;;;;;;;;;5114260;28;20439;-58
2021/01/28 12:24:55;;;;;;;13.10;5.20;;;;;;;;;;5113404;28;20074;-57
2021/01/28 12:30:23;;;;;;;7.25;3.90;;;;;;;;;;5113707;28;20015;-58
2021/01/28 12:32:49;;;;;;;6.68;4.30;;;;;;;;;;5113861;28;20016;-56
2021/01/28 12:35:15;;;;;;;7.22;3.88;;;;;;;;;;5113733;28;20033;-58
2021/01/28 12:37:40;;;;;;;5.15;3.55;;;;;;;;;;5114160;28;20011;-55
2021/01/28 12:40:07;;;;;;;4.60;3.08;;;;;;;;;;5113688;28;20059;-57
2021/01/28 12:42:32;;;;;;;3.80;2.80;;;;;;;;;;5113198;28;20040;-56
2021/01/28 12:44:58;;;;;;;5.63;3.53;;;;;;;;;;5113565;27;20043;-57
2021/01/28 12:47:23;;;;;;;4.07;3.67;;;;;;;;;;5113212;28;20047;-58
2021/01/28 12:49:48;;;;;;;8.65;6.03;;;;;;;;;;5113250;28;20027;-58
2021/01/28 12:52:14;;;;;;;7.15;4.07;;;;;;;;;;5113168;28;20019;-59
2021/01/28 12:54:40;;;;;;;5.68;4.38;;;;;;;;;;5111687;28;20024;-59
2021/01/28 12:57:06;;;;;;;4.35;2.90;;;;;;;;;;5114060;28;20483;-58
2021/01/28 12:59:31;;;;;;;8.35;2.03;;;;;;;;;;5113308;28;20054;-58
2021/01/28 13:01:56;;;;;;;5.95;2.50;;;;;;;;;;5113245;28;20100;-58
2021/01/28 13:04:22;;;;;;;10.10;3.25;;;;;;;;;;5111804;28;20020;-58
2021/01/28 13:09:50;;;;;;;7.90;2.05;;;;;;;;;;5113145;28;20022;-58
2021/01/28 13:12:15;;;;;;;6.05;2.50;;;;;;;;;;5112874;28;20020;-58
2021/01/28 13:14:42;;;;;;;2.83;2.17;;;;;;;;;;5113272;28;20447;-58
2021/01/28 13:17:08;;;;;;;3.03;1.88;;;;;;;;;;5123224;27;20019;-58
2021/01/28 13:19:33;;;;;;;2.35;1.60;;;;;;;;;;5121559;27;20068;-59
2021/01/28 13:21:59;;;;;;;6.53;1.75;;;;;;;;;;5096686;28;20023;-58
2021/01/28 13:24:24;;;;;;;2.53;1.65;;;;;;;;;;5104031;28;20059;-58
2021/01/28 13:26:49;;;;;;;3.33;1.98;;;;;;;;;;5117361;28;20027;-58
2021/01/28 13:29:15;;;;;;;1.13;1.00;;;;;;;;;;5121301;27;20466;-58
2021/01/28 13:31:40;;;;;;;3.88;2.53;;;;;;;;;;5137962;27;20015;-59
2021/01/28 13:34:05;;;;;;;2.22;1.50;;;;;;;;;;5137371;27;20027;-59
2021/01/28 13:36:31;;;;;;;3.25;2.28;;;;;;;;;;5137835;27;20046;-58
2021/01/28 13:38:56;;;;;;;2.85;2.15;;;;;;;;;;5137317;27;20443;-58
2021/01/28 13:41:21;;;;;;;4.70;3.30;;;;;;;;;;5138252;27;20015;-58
2021/01/28 13:43:47;;;;;;;3.20;2.40;;;;;;;;;;5137259;27;20047;-58
2021/01/28 13:46:12;;;;;;;5.50;2.38;;;;;;;;;;5137963;27;20082;-58
2021/01/28 13:48:37;;;;;;;2.67;2.00;;;;;;;;;;5138006;27;20103;-58
2021/01/28 13:51:03;;;;;;;7.93;2.92;;;;;;;;;;5137432;27;20427;-58
2021/01/28 13:53:28;;;;;;;4.55;1.83;;;;;;;;;;5137754;27;20428;-58
2021/01/28 13:55:53;;;;;;;4.22;3.17;;;;;;;;;;5136943;27;20128;-58
2021/01/28 13:58:19;;;;;;;2.05;1.58;;;;;;;;;;5137204;27;20026;-58
2021/01/28 14:00:44;;;;;;;5.55;2.65;;;;;;;;;;5137317;27;20012;-59
2021/01/28 14:03:10;;;;;;;3.40;2.45;;;;;;;;;;5137431;27;20062;-58
2021/01/28 14:05:35;;;;;;;7.63;2.72;;;;;;;;;;5137191;27;20022;-58
2021/01/28 14:08:01;;;;;;;9.70;6.07;;;;;;;;;;5137387;27;20019;-58
2021/01/28 14:10:28;;;;;;;6.70;5.38;;;;;;;;;;5135570;27;20347;-58
2021/01/28 14:12:53;;;;;;;10.70;5.68;;;;;;;;;;5137241;27;20511;-58
2021/01/28 14:15:19;;;;;;;4.75;3.15;;;;;;;;;;5115408;27;20099;-59
2021/01/28 14:17:45;;;;;;;3.60;2.55;;;;;;;;;;5124611;27;20033;-58
2021/01/28 14:20:11;;;;;;;2.75;1.95;;;;;;;;;;5113999;27;20448;-58
2021/01/28 14:22:36;;;;;;;2.65;1.65;;;;;;;;;;5096139;28;20020;-58
2021/01/28 14:25:02;;;;;;;6.30;2.28;;;;;;;;;;5111776;27;20069;-59
2021/01/28 14:27:27;;;;;;;3.97;2.13;;;;;;;;;;5115757;28;20023;-58
2021/01/28 14:29:53;;;;;;;1.65;0.82;;;;;;;;;;5114371;28;20019;-58
2021/01/28 14:32:19;;;;;;;3.03;1.58;;;;;;;;;;5107486;27;20008;-58
2021/01/28 14:35:02;;;;;;;2.97;1.77;;;;;;;;;;5098646;28;20024;-58
2021/01/28 14:37:27;;;;;;;6.78;5.20;;;;;;;;;;5105393;27;20011;-59
2021/01/28 14:39:53;;;;;;;6.47;4.88;;;;;;;;;;5121403;27;20015;-58
2021/01/28 14:42:19;;;;;;;8.25;5.15;;;;;;;;;;5119511;27;20015;-59
2021/01/28 14:44:44;;;;;;;3.50;2.42;;;;;;;;;;5135027;27;20019;-58
2021/01/28 14:47:10;;;;;;;4.22;2.80;;;;;;;;;;5118380;27;20042;-58
2021/01/28 14:49:35;;;;;;;17.67;3.50;;;;;;;;;;5095411;28;20027;-59
2021/01/28 14:52:00;;;;;;;11.02;4.63;;;;;;;;;;5108175;27;20112;-58
2021/01/28 14:54:25;;;;;;;8.23;3.92;;;;;;;;;;5108786;27;20443;-59
2021/01/28 14:56:51;;;;;;;6.22;4.82;;;;;;;;;;5134346;27;20074;-58
2021/01/28 14:59:16;;;;;;;8.52;5.20;;;;;;;;;;5116445;27;20022;-59